Startpagina
METAR-TAF:

METAR-TAF

Vliegvelden :

Vliegveld de Kooy

Den Helder, Nederland

breedte: 52-55N, lengte: 004-47E, hoogte: 0 m

Actueel weer

Dit bericht is 23 minuten geleden gemaakt, om 04:25 UTC
Wind 4 kt uit het westnoordwesten, variërend tussen het westen en het noordwesten
Temperatuur 4°C
Vochtigheid 65%
Druk 1027 hPa
Zicht 10 km of meer
Geheel bewolkt op 3200 ft

METAR: EHKD 070425Z AUTO 30004KT 260V320 9999 OVC032 04/M02 Q1027 BLU

Tijdstip: 05:48 (04:48 UTC)

Verwachting

Dit bericht is 3 uur en het 40 minuten geleden gemaakt, om 01:08 UTC
Verwachting geldig van 07 om 02 UTC tot 07 om 14 UTC
Wind 5 kt uit het westen
Zicht 10 km of meer
Weinig wolken op 2500 ft
Gebroken wolken op 3500 ft
Wijzigt naar
van 07 om 09 UTC tot 07 om 11 UTC
Wind 10 kt uit het westnoordwesten

TAF: EHKD 070108Z 0702/0714 28005KT 9999 FEW025 BKN035 BECMG 0709/0711 29010KT

Waarnemingen en weersverwachtingen van meer dan 4000 vliegvelden (METAR en TAF).

De beschikbare stations zijn de gele en rode punten op de kaart.

Ga met uw muis naar het station om de naam te zien.

Klik dan om waarnemingen en weersverwachtingen te zien.

kaart wijzigen: klik op de groene knoppen met een zwart kruis om in te zoomen, op de groene knop met een streepje om uit te zoomen of op de groene pijlen voor aangrenzende kaarten.


METAR-TAF: